GLV1023 SBFN-SBRF
Flight info
| Callsign | GLV1023 |
|---|---|
| Flight time | N/A |
| Altitude | 32000 |
| Route | TOMEK DCT UBRUT |
| Aircraft | B738/M-SDE2E3FGHIRWXY/LB1 |
Departure
| Time | 2026-04-24 07:39 |
|---|---|
| Airport | Fernando de Noronha Airport (SBFN) |
Arrival
| Time | N/A |
|---|---|
| Airport | Recife/Guararapes - Gilberto Freyre International Airport (SBRF) |
| Time | Latitude | Longitude | Altitude | Speed | Heading |
|---|---|---|---|---|---|
| 2026-04-24 07:26 | -3.85590 | -32.42909 | 191 ft | 0 kts | 131° |
| 2026-04-24 07:32 | -3.85589 | -32.42911 | 191 ft | 0 kts | 105° |
| 2026-04-24 07:33 | -3.85589 | -32.42909 | 191 ft | 1 kts | 100° |
| 2026-04-24 07:33 | -3.85585 | -32.42898 | 191 ft | 3 kts | 64° |
| 2026-04-24 07:33 | -3.85571 | -32.42869 | 191 ft | 6 kts | 64° |
| 2026-04-24 07:33 | -3.85560 | -32.42825 | 191 ft | 6 kts | 89° |
| 2026-04-24 07:34 | -3.85551 | -32.42785 | 191 ft | 6 kts | 53° |
| 2026-04-24 07:34 | -3.85518 | -32.42764 | 191 ft | 6 kts | 24° |
| 2026-04-24 07:34 | -3.85483 | -32.42749 | 191 ft | 5 kts | 21° |
| 2026-04-24 07:34 | -3.85449 | -32.42739 | 191 ft | 5 kts | 4° |
| 2026-04-24 07:35 | -3.85420 | -32.42750 | 191 ft | 4 kts | 314° |
| 2026-04-24 07:35 | -3.85411 | -32.42775 | 191 ft | 4 kts | 281° |
| 2026-04-24 07:35 | -3.85407 | -32.42798 | 191 ft | 3 kts | 277° |
| 2026-04-24 07:35 | -3.85405 | -32.42821 | 191 ft | 3 kts | 275° |
| 2026-04-24 07:36 | -3.85403 | -32.42847 | 191 ft | 5 kts | 273° |
| 2026-04-24 07:36 | -3.85401 | -32.42882 | 191 ft | 6 kts | 273° |
| 2026-04-24 07:36 | -3.85399 | -32.42927 | 191 ft | 7 kts | 273° |
| 2026-04-24 07:36 | -3.85395 | -32.42983 | 191 ft | 9 kts | 274° |
| 2026-04-24 07:37 | -3.85392 | -32.43042 | 191 ft | 8 kts | 265° |
| 2026-04-24 07:37 | -3.85413 | -32.43090 | 191 ft | 7 kts | 234° |
| 2026-04-24 07:37 | -3.85412 | -32.43121 | 191 ft | 3 kts | 325° |
| 2026-04-24 07:37 | -3.85399 | -32.43119 | 191 ft | 1 kts | 29° |
| 2026-04-24 07:38 | -3.85392 | -32.43111 | 191 ft | 3 kts | 55° |
| 2026-04-24 07:38 | -3.85388 | -32.43088 | 191 ft | 3 kts | 92° |
| 2026-04-24 07:38 | -3.85391 | -32.43041 | 191 ft | 32 kts | 94° |
| 2026-04-24 07:38 | -3.85426 | -32.42549 | 191 ft | 108 kts | 94° |
| 2026-04-24 07:39 | -3.85495 | -32.41574 | 193 ft | 170 kts | 93° |
| 2026-04-24 07:39 | -3.85581 | -32.40335 | 399 ft | 186 kts | 92° |
| 2026-04-24 07:39 | -3.85682 | -32.38980 | 907 ft | 205 kts | 93° |
| 2026-04-24 07:39 | -3.85805 | -32.37508 | 1569 ft | 221 kts | 94° |
| 2026-04-24 07:40 | -3.85955 | -32.35913 | 2250 ft | 240 kts | 96° |
| 2026-04-24 07:40 | -3.86546 | -32.34303 | 2858 ft | 256 kts | 120° |
| 2026-04-24 07:40 | -3.87801 | -32.33032 | 3485 ft | 262 kts | 144° |
| 2026-04-24 07:40 | -3.89493 | -32.32373 | 4106 ft | 266 kts | 168° |
| 2026-04-24 07:41 | -3.91358 | -32.32419 | 4757 ft | 273 kts | 188° |
| 2026-04-24 07:41 | -3.93214 | -32.32838 | 5408 ft | 276 kts | 194° |
| 2026-04-24 07:41 | -3.95060 | -32.33382 | 6034 ft | 278 kts | 197° |
| 2026-04-24 07:41 | -3.96907 | -32.33978 | 6658 ft | 281 kts | 198° |
| 2026-04-24 07:42 | -3.98770 | -32.34591 | 7282 ft | 284 kts | 198° |
| 2026-04-24 07:42 | -4.00648 | -32.35211 | 7906 ft | 286 kts | 198° |
| 2026-04-24 07:42 | -4.02544 | -32.35838 | 8529 ft | 289 kts | 198° |
| 2026-04-24 07:42 | -4.04454 | -32.36470 | 9151 ft | 292 kts | 198° |
| 2026-04-24 07:43 | -4.06392 | -32.37112 | 9777 ft | 295 kts | 198° |
| 2026-04-24 07:43 | -4.08357 | -32.37764 | 10373 ft | 303 kts | 198° |
| 2026-04-24 07:43 | -4.10397 | -32.38440 | 10884 ft | 316 kts | 197° |
| 2026-04-24 07:43 | -4.12527 | -32.39146 | 11371 ft | 330 kts | 197° |
| 2026-04-24 07:44 | -4.14740 | -32.39880 | 11833 ft | 343 kts | 197° |
| 2026-04-24 07:44 | -4.17035 | -32.40641 | 12380 ft | 352 kts | 197° |
| 2026-04-24 07:44 | -4.19375 | -32.41419 | 12996 ft | 359 kts | 197° |
| 2026-04-24 07:44 | -4.21754 | -32.42210 | 13691 ft | 362 kts | 197° |
| 2026-04-24 07:45 | -4.24151 | -32.43009 | 14379 ft | 367 kts | 197° |
| 2026-04-24 07:45 | -4.26581 | -32.43818 | 15024 ft | 373 kts | 197° |
| 2026-04-24 07:45 | -4.29054 | -32.44642 | 15708 ft | 377 kts | 197° |
| 2026-04-24 07:45 | -4.31548 | -32.45474 | 16449 ft | 380 kts | 197° |
| 2026-04-24 07:46 | -4.34060 | -32.46312 | 17143 ft | 383 kts | 197° |
| 2026-04-24 07:46 | -4.36579 | -32.47209 | 17812 ft | 387 kts | 201° |
| 2026-04-24 07:46 | -4.38979 | -32.48439 | 18491 ft | 391 kts | 210° |
| 2026-04-24 07:46 | -4.41175 | -32.50051 | 19116 ft | 395 kts | 220° |
| 2026-04-24 07:47 | -4.43102 | -32.52017 | 19800 ft | 397 kts | 229° |
| 2026-04-24 07:47 | -4.44771 | -32.54244 | 20302 ft | 404 kts | 236° |
| 2026-04-24 07:47 | -4.46226 | -32.56666 | 20801 ft | 410 kts | 241° |
| 2026-04-24 07:47 | -4.47529 | -32.59217 | 21337 ft | 414 kts | 244° |
| 2026-04-24 07:48 | -4.48737 | -32.61836 | 21900 ft | 417 kts | 246° |
| 2026-04-24 07:48 | -4.49887 | -32.64504 | 22436 ft | 420 kts | 246° |
| 2026-04-24 07:48 | -4.51053 | -32.67192 | 22952 ft | 423 kts | 246° |
| 2026-04-24 07:48 | -4.52257 | -32.69884 | 23460 ft | 426 kts | 245° |
| 2026-04-24 07:49 | -4.53493 | -32.72582 | 23954 ft | 429 kts | 245° |
| 2026-04-24 07:49 | -4.54756 | -32.75296 | 24431 ft | 432 kts | 244° |
| 2026-04-24 07:49 | -4.56035 | -32.78019 | 24939 ft | 433 kts | 244° |
| 2026-04-24 07:49 | -4.57332 | -32.80727 | 25536 ft | 432 kts | 243° |
| 2026-04-24 07:50 | -4.58912 | -32.83287 | 25925 ft | 436 kts | 233° |
| 2026-04-24 07:50 | -4.60889 | -32.85587 | 26320 ft | 438 kts | 225° |
| 2026-04-24 07:50 | -4.63183 | -32.87595 | 26732 ft | 440 kts | 217° |
| 2026-04-24 07:50 | -4.65691 | -32.89350 | 27126 ft | 442 kts | 212° |
| 2026-04-24 07:51 | -4.68325 | -32.90922 | 27513 ft | 444 kts | 208° |
| 2026-04-24 07:51 | -4.71054 | -32.92400 | 27903 ft | 446 kts | 207° |
| 2026-04-24 07:51 | -4.73810 | -32.93811 | 28360 ft | 446 kts | 206° |
| 2026-04-24 07:51 | -4.76552 | -32.95242 | 28841 ft | 445 kts | 207° |
| 2026-04-24 07:52 | -4.79262 | -32.96711 | 29299 ft | 444 kts | 208° |
| 2026-04-24 07:52 | -4.81945 | -32.98206 | 29806 ft | 441 kts | 208° |
| 2026-04-24 07:52 | -4.84601 | -32.99712 | 30321 ft | 438 kts | 208° |
| 2026-04-24 07:52 | -4.87230 | -33.01220 | 30792 ft | 435 kts | 209° |
| 2026-04-24 07:53 | -4.89839 | -33.02728 | 31233 ft | 433 kts | 209° |
| 2026-04-24 07:53 | -4.92437 | -33.04235 | 31655 ft | 431 kts | 209° |
| 2026-04-24 07:53 | -4.95017 | -33.05736 | 31861 ft | 429 kts | 209° |
| 2026-04-24 07:53 | -4.97581 | -33.07229 | 31887 ft | 428 kts | 209° |
| 2026-04-24 07:54 | -5.02727 | -33.10229 | 31904 ft | 429 kts | 210° |
| 2026-04-24 07:54 | -5.07910 | -33.13254 | 31914 ft | 433 kts | 209° |
| 2026-04-24 07:55 | -5.13109 | -33.16289 | 31903 ft | 434 kts | 209° |
| 2026-04-24 07:55 | -5.18308 | -33.19323 | 31902 ft | 434 kts | 209° |
| 2026-04-24 07:56 | -5.23515 | -33.22360 | 31902 ft | 434 kts | 209° |
| 2026-04-24 07:56 | -5.28713 | -33.25391 | 31931 ft | 432 kts | 209° |
| 2026-04-24 07:57 | -5.33895 | -33.28412 | 31911 ft | 432 kts | 209° |
| 2026-04-24 07:57 | -5.39075 | -33.31435 | 31904 ft | 432 kts | 209° |
| 2026-04-24 07:58 | -5.44067 | -33.34777 | 31904 ft | 433 kts | 215° |
| 2026-04-24 07:58 | -5.48821 | -33.38467 | 31904 ft | 433 kts | 217° |
| 2026-04-24 07:59 | -5.53520 | -33.42221 | 31940 ft | 432 kts | 217° |
| 2026-04-24 07:59 | -5.58240 | -33.45906 | 31909 ft | 431 kts | 216° |
| 2026-04-24 08:00 | -5.62986 | -33.49555 | 31904 ft | 431 kts | 216° |
| 2026-04-24 08:00 | -5.67745 | -33.53195 | 31904 ft | 431 kts | 216° |
| 2026-04-24 08:01 | -5.72497 | -33.56822 | 31904 ft | 431 kts | 216° |
| 2026-04-24 08:01 | -5.77262 | -33.60456 | 31937 ft | 428 kts | 216° |
| 2026-04-24 08:02 | -5.81991 | -33.64063 | 31907 ft | 428 kts | 216° |
| 2026-04-24 08:02 | -5.86712 | -33.67666 | 31904 ft | 428 kts | 216° |
| 2026-04-24 08:03 | -5.91438 | -33.71276 | 31904 ft | 428 kts | 216° |
| 2026-04-24 08:03 | -5.96169 | -33.74893 | 31904 ft | 428 kts | 216° |
| 2026-04-24 08:04 | -6.00901 | -33.78512 | 31928 ft | 428 kts | 216° |
| 2026-04-24 08:04 | -6.05625 | -33.82126 | 31908 ft | 428 kts | 216° |
| 2026-04-24 08:05 | -6.10356 | -33.85746 | 31906 ft | 428 kts | 216° |
| 2026-04-24 08:05 | -6.15088 | -33.89367 | 31906 ft | 428 kts | 216° |
| 2026-04-24 08:06 | -6.19813 | -33.92983 | 31906 ft | 428 kts | 216° |
| 2026-04-24 08:06 | -6.24532 | -33.96595 | 31924 ft | 428 kts | 216° |
| 2026-04-24 08:07 | -6.29254 | -34.00210 | 31911 ft | 428 kts | 216° |
| 2026-04-24 08:07 | -6.33981 | -34.03830 | 31909 ft | 428 kts | 216° |
| 2026-04-24 08:08 | -6.38697 | -34.07443 | 31909 ft | 427 kts | 216° |
| 2026-04-24 08:09 | -6.45778 | -34.12870 | 31944 ft | 428 kts | 216° |
| 2026-04-24 08:09 | -6.50502 | -34.16491 | 31915 ft | 428 kts | 216° |
| 2026-04-24 08:10 | -6.55175 | -34.20074 | 31904 ft | 415 kts | 216° |
| 2026-04-24 08:10 | -6.59705 | -34.23550 | 31912 ft | 410 kts | 216° |
| 2026-04-24 08:11 | -6.64232 | -34.27023 | 31912 ft | 410 kts | 216° |
| 2026-04-24 08:11 | -6.68756 | -34.30492 | 31943 ft | 409 kts | 217° |
| 2026-04-24 08:12 | -6.73263 | -34.33948 | 31916 ft | 409 kts | 217° |
| 2026-04-24 08:12 | -6.77772 | -34.37408 | 31915 ft | 409 kts | 217° |
| 2026-04-24 08:13 | -6.82281 | -34.40870 | 31915 ft | 409 kts | 217° |
| 2026-04-24 08:13 | -6.86789 | -34.44332 | 31915 ft | 409 kts | 217° |
| 2026-04-24 08:14 | -6.91288 | -34.47789 | 31948 ft | 408 kts | 216° |
| 2026-04-24 08:14 | -6.95820 | -34.51273 | 31920 ft | 411 kts | 216° |
| 2026-04-24 08:15 | -7.00350 | -34.54755 | 31918 ft | 411 kts | 216° |
| 2026-04-24 08:15 | -7.04878 | -34.58237 | 31917 ft | 411 kts | 216° |
| 2026-04-24 08:16 | -7.09411 | -34.61721 | 31917 ft | 411 kts | 216° |
| 2026-04-24 08:16 | -7.13944 | -34.65207 | 31940 ft | 411 kts | 216° |
| 2026-04-24 08:17 | -7.18526 | -34.68730 | 31929 ft | 418 kts | 216° |
| 2026-04-24 08:17 | -7.23133 | -34.72274 | 31925 ft | 418 kts | 217° |
| 2026-04-24 08:18 | -7.27723 | -34.75832 | 31925 ft | 418 kts | 217° |
| 2026-04-24 08:18 | -7.32306 | -34.79393 | 31925 ft | 418 kts | 217° |
| 2026-04-24 08:19 | -7.36899 | -34.82963 | 31945 ft | 417 kts | 217° |
| 2026-04-24 08:19 | -7.41485 | -34.86526 | 31929 ft | 418 kts | 217° |
| 2026-04-24 08:20 | -7.46073 | -34.90089 | 31927 ft | 417 kts | 217° |
| 2026-04-24 08:20 | -7.50662 | -34.93653 | 31927 ft | 417 kts | 217° |
| 2026-04-24 08:21 | -7.55251 | -34.97217 | 31926 ft | 417 kts | 217° |
| 2026-04-24 08:21 | -7.59839 | -35.00780 | 31945 ft | 417 kts | 217° |
| 2026-04-24 08:22 | -7.64058 | -35.03615 | 31434 ft | 420 kts | 205° |